Armavir, Russia

11:36 AM MSK on August 22, 2014 (GMT +0400)
Shpakovskoye | Change Station
CLOSE
Current Station
Airport
Location: Stavropol',
Elevation: 1483 ft
Nearby Weather Stations

Elev 1483 ft 45.12 °N, 42.08 °E | Updated 36 minutes ago

Mostly Cloudy
Mostly Cloudy
82 °F
Feels Like 84 °F
N
7
Wind Variable Wind from South

Today
High -- | Low -- °F
--% Chance of Precip.
Yesterday
High -- | Low -- °F
Precip. -- in
6:25 AM 8:10 PM
Waning Crescent, 9% visible
Pressure 30.01 in
Visibility 6.2 miles
Clouds Few 3000 ft
Mostly Cloudy 10000 ft
Heat Index 84 °F
Dew Point 64 °F
Humidity 54%
Rainfall 0.00 in
Snow Depth Not available.
UV 3 out of 12
Pollen Not available.
Air Quality Not available.
Flu Activity Not available.
METAR URMT 220700Z 17003MPS 120V210 9999 FEW030 BKN100 28/18 Q1016 NOSIG RMK QFE722 SC070

More Conditions Fewer Conditions

Pressure 30.01 in
Visibility 6.2 miles
Clouds Few 3000 ft
Mostly Cloudy 10000 ft
Heat Index 84 °F
Dew Point 64 °F
Humidity 54%
Rainfall 0.00 in
Snow Depth Not available.
UV 3 out of 12
Pollen Not available.
Air Quality Not available.
Flu Activity Not available.
METAR URMT 220700Z 17003MPS 120V210 9999 FEW030 BKN100 28/18 Q1016 NOSIG RMK QFE722 SC070

More Conditions Fewer Conditions

10-Day Weather Forecast

Almanac

Astronomy

Aug. 22, 2014 Rise Set
Actual Time 6:25 AM MSK 8:10 PM MSK
Civil Twilight 5:53 AM MSK 8:41 PM MSK
Nautical Twilight 5:15 AM MSK 9:19 PM MSK
Astronomical Twilight 4:34 AM MSK 10:00 PM MSK
Moon 3:24 AM MSK 6:08 PM MSK
Length of Visible Light 14h 48m
Length of Day
13h 45m
Tomorrow will be 2m 54s shorter.
Waning Crescent, 9% of the Moon is Illuminated
Today
Waning Crescent
Aug 25
New
Sep 2
First Quarter
Sep 8
Full
Sep 15
Last Quarter

Yesterday's Extremes

Country Highs Country Lows

Community

WunderPhotos

Upload Photos

1,746,131 photos uploaded!

Nearby

Snow Depth

Not available.

Earthquake Activity

City Distance Mag. Time & Date
No recent earthquake activity has been reported nearby.
Minimum magnitude displayed is 2.5.

Coastal Water Temperatures

Place Temperature
No Stations Reporting

Nearby Weather Stations